Terminal Aerodrome Forecast
Issued by NWS

Home | Current Version | Previous Version | Text Only | Print | Product List | Glossary On
Versions: 1 2 3 4 5 6 7 8 9 10 11 12 13 14
000
FTUS42 KMLB 230523
TAFFPR
TAF
KFPR 230523Z 2306/2406 14011KT P6SM FEW024 SCT080 OVC250
     FM230800 14003KT P6SM VCSH SCT025 BKN080
     FM231400 12011KT 5SM -SHRA BKN035
     FM232000 13011KT P6SM VCSH SCT035 BKN060=

USA.gov is the U.S. government's official web portal to all federal, state and local government web resources and services.